createdAt,value
2023-04-10T00:00:57.687Z,18.85
2023-04-10T00:03:24.803Z,20.05
2023-04-10T00:05:54.580Z,20.52
2023-04-10T00:08:23.601Z,19.80
2023-04-10T00:10:50.216Z,19.30
2023-04-10T00:13:16.988Z,20.30
2023-04-10T00:15:43.814Z,19.13
2023-04-10T00:18:10.365Z,19.35
2023-04-10T00:20:36.831Z,18.58
2023-04-10T00:23:03.409Z,19.52
2023-04-10T00:25:30.291Z,19.90
2023-04-10T00:27:56.800Z,19.35
2023-04-10T00:30:23.341Z,20.30
2023-04-10T00:32:49.806Z,19.27
2023-04-10T00:35:16.896Z,19.38
2023-04-10T00:37:43.380Z,19.20
2023-04-10T00:40:10.229Z,19.88
2023-04-10T00:42:37.265Z,19.90
2023-04-10T00:45:04.092Z,19.15
2023-04-10T00:47:31.240Z,18.52
2023-04-10T00:49:57.811Z,20.30
2023-04-10T00:52:26.457Z,20.38
2023-04-10T00:54:53.100Z,18.58
2023-04-10T00:57:19.796Z,18.92
2023-04-10T00:59:46.596Z,17.73
2023-04-10T01:02:14.626Z,18.73
2023-04-10T01:04:42.174Z,19.92
2023-04-10T01:07:51.833Z,19.45
2023-04-10T01:10:34.444Z,20.95
2023-04-10T01:13:16.742Z,17.95
2023-04-10T01:16:20.692Z,19.57
2023-04-10T01:19:00.700Z,18.13
2023-04-10T01:21:29.515Z,18.85
2023-04-10T01:24:21.542Z,19.48
2023-04-10T01:27:20.937Z,19.73
2023-04-10T01:29:52.540Z,19.85
2023-04-10T01:32:22.394Z,19.95
2023-04-10T01:34:55.574Z,18.40
2023-04-10T01:37:30.550Z,20.00
2023-04-10T01:40:03.351Z,20.33
2023-04-10T01:42:33.966Z,18.80
2023-04-10T01:45:01.987Z,19.23
2023-04-10T01:47:33.094Z,20.77
2023-04-10T01:50:02.021Z,20.35
2023-04-10T01:52:32.570Z,20.35
2023-04-10T01:55:05.749Z,20.55
2023-04-10T01:57:42.817Z,20.35
2023-04-10T02:00:11.159Z,20.70
2023-04-10T02:02:37.838Z,21.20
2023-04-10T02:05:12.356Z,21.92
2023-04-10T02:08:22.112Z,22.35
2023-04-10T02:11:02.652Z,20.33
2023-04-10T02:13:32.521Z,19.63
2023-04-10T02:16:07.144Z,20.60
2023-04-10T02:18:54.621Z,19.65
2023-04-10T02:21:30.114Z,19.88
2023-04-10T02:23:59.816Z,21.42
2023-04-10T02:26:28.598Z,20.80
2023-04-10T02:28:57.883Z,20.55
2023-04-10T02:31:28.124Z,20.52
2023-04-10T02:33:56.325Z,20.17
2023-04-10T02:36:29.458Z,18.40
2023-04-10T02:41:28.250Z,15.57
2023-04-10T02:44:12.898Z,18.05
2023-04-10T02:58:51.277Z,17.33
2023-04-10T03:07:43.490Z,17.20
2023-04-10T03:10:09.918Z,16.63
2023-04-10T03:12:38.829Z,17.73
2023-04-10T03:15:06.129Z,17.77
2023-04-10T03:17:32.869Z,18.48
2023-04-10T03:19:59.461Z,18.00
2023-04-10T03:22:31.186Z,18.75
2023-04-10T03:25:00.221Z,20.17
2023-04-10T03:27:27.114Z,19.40
2023-04-10T03:30:04.071Z,18.17
2023-04-10T03:32:44.622Z,17.92
2023-04-10T03:35:13.562Z,18.05
2023-04-10T03:37:40.094Z,17.98
2023-04-10T03:40:13.047Z,18.55
2023-04-10T03:42:42.606Z,18.10
2023-04-10T03:45:09.752Z,17.98
2023-04-10T03:47:36.466Z,18.23
2023-04-10T03:50:05.228Z,19.35
2023-04-10T03:52:33.047Z,16.65
2023-04-10T03:54:59.646Z,17.58
2023-04-10T03:57:28.465Z,18.25
2023-04-10T03:59:55.330Z,17.10
2023-04-10T04:02:24.415Z,18.45
2023-04-10T04:04:51.307Z,16.98
2023-04-10T04:07:18.066Z,17.90
2023-04-10T04:09:44.607Z,17.02
2023-04-10T04:14:53.152Z,17.98
2023-04-10T04:17:19.690Z,17.63
2023-04-10T04:19:46.206Z,17.25
2023-04-10T04:22:12.697Z,18.05
2023-04-10T04:24:39.065Z,17.10
2023-04-10T04:27:05.989Z,17.00
2023-04-10T04:29:32.461Z,17.23
2023-04-10T04:31:59.023Z,16.30
2023-04-10T04:34:25.712Z,16.08
2023-04-10T04:36:52.356Z,17.25
2023-04-10T04:39:18.851Z,16.30
2023-04-10T04:41:45.407Z,15.98
2023-04-10T04:44:11.858Z,16.05
2023-04-10T04:46:38.280Z,15.68
2023-04-10T04:49:04.809Z,16.88
2023-04-10T04:51:31.204Z,15.95
2023-04-10T04:53:57.772Z,15.55
2023-04-10T04:56:24.372Z,17.10
2023-04-10T04:58:50.859Z,15.95
2023-04-10T05:01:17.713Z,15.43
2023-04-10T05:03:44.259Z,15.40
2023-04-10T05:06:11.035Z,14.70
2023-04-10T05:08:37.523Z,15.13
2023-04-10T05:11:04.098Z,16.67
2023-04-10T05:13:30.881Z,16.55
2023-04-10T05:15:57.420Z,16.10
2023-04-10T05:18:24.108Z,15.07
2023-04-10T05:20:50.864Z,15.15
2023-04-10T05:23:17.411Z,15.27
2023-04-10T05:25:43.925Z,14.48
2023-04-10T05:28:10.449Z,14.52
2023-04-10T05:30:36.979Z,13.68
2023-04-10T05:33:03.582Z,14.23
2023-04-10T05:35:30.350Z,14.60
2023-04-10T05:37:57.090Z,13.88
2023-04-10T05:40:23.635Z,14.23
2023-04-10T05:42:50.150Z,14.70
2023-04-10T05:45:16.948Z,14.27
2023-04-10T05:47:43.480Z,13.10
2023-04-10T05:50:10.569Z,13.13
2023-04-10T05:52:37.141Z,13.88
2023-04-10T05:55:03.980Z,12.98
2023-04-10T05:57:30.783Z,12.95
2023-04-10T05:59:57.295Z,12.10
2023-04-10T06:02:24.719Z,11.63
2023-04-10T06:04:51.472Z,11.80
2023-04-10T06:07:18.211Z,12.50
2023-04-10T06:09:44.693Z,11.40
2023-04-10T06:12:11.769Z,10.73
2023-04-10T06:14:38.379Z,11.10
2023-04-10T06:17:04.921Z,9.63
2023-04-10T06:19:31.562Z,10.88
2023-04-10T06:21:58.113Z,10.23
2023-04-10T06:24:24.609Z,9.63
2023-04-10T06:26:51.074Z,9.73
2023-04-10T06:29:17.637Z,9.50
2023-04-10T06:31:44.477Z,10.32
2023-04-10T06:34:11.103Z,9.88
2023-04-10T06:36:37.904Z,9.55
2023-04-10T06:39:04.543Z,9.65
2023-04-10T06:41:31.201Z,8.75
2023-04-10T06:43:57.693Z,9.80
2023-04-10T06:46:24.284Z,10.20
2023-04-10T06:48:50.963Z,9.93
2023-04-10T06:51:17.561Z,9.75
2023-04-10T06:53:44.098Z,9.98
2023-04-10T06:56:10.867Z,9.00
2023-04-10T06:58:37.472Z,9.18
2023-04-10T07:01:04.766Z,9.15
2023-04-10T07:03:32.681Z,9.85
2023-04-10T07:06:00.183Z,9.07
2023-04-10T07:08:26.588Z,9.82
2023-04-10T07:10:53.156Z,9.52
2023-04-10T07:13:19.660Z,9.60
2023-04-10T07:15:46.170Z,9.73
2023-04-10T07:18:12.727Z,9.55
2023-04-10T07:20:39.239Z,9.10
2023-04-10T07:23:05.919Z,9.05
2023-04-10T07:25:33.633Z,9.43
2023-04-10T07:28:00.116Z,9.07
2023-04-10T07:30:26.694Z,9.13
2023-04-10T07:32:53.434Z,9.70
2023-04-10T07:35:20.373Z,9.70
2023-04-10T07:37:51.477Z,9.20
2023-04-10T07:40:18.227Z,8.85
2023-04-10T07:42:44.793Z,9.63
2023-04-10T07:45:11.524Z,8.90
2023-04-10T07:47:38.351Z,9.10
2023-04-10T07:50:05.530Z,8.63
2023-04-10T07:52:32.062Z,9.10
2023-04-10T07:55:01.352Z,10.10
2023-04-10T07:57:27.832Z,8.75
2023-04-10T07:59:54.393Z,9.75
2023-04-10T08:02:21.084Z,9.63
2023-04-10T08:04:47.911Z,9.82
2023-04-10T08:07:14.466Z,9.90
2023-04-10T08:09:41.165Z,9.68
2023-04-10T08:12:07.670Z,10.43
2023-04-10T08:14:34.223Z,10.02
2023-04-10T08:17:01.230Z,9.10
2023-04-10T08:19:28.156Z,9.05
2023-04-10T08:21:54.757Z,9.43
2023-04-10T08:24:22.840Z,8.18
2023-04-10T08:26:49.775Z,8.45
2023-04-10T08:29:16.430Z,8.70
2023-04-10T08:31:42.889Z,8.30
2023-04-10T08:34:09.267Z,7.97
2023-04-10T08:36:35.784Z,9.00
2023-04-10T08:39:02.307Z,8.50
2023-04-10T08:41:28.926Z,8.13
2023-04-10T08:43:57.700Z,8.38
2023-04-10T08:46:27.581Z,8.60
2023-04-10T08:49:05.142Z,8.38
2023-04-10T08:51:56.440Z,8.65
2023-04-10T08:54:32.719Z,8.18
2023-04-10T08:57:01.335Z,8.57
2023-04-10T08:59:30.859Z,9.20
2023-04-10T09:01:57.821Z,8.57
2023-04-10T09:04:25.634Z,8.70
2023-04-10T09:06:55.724Z,9.27
2023-04-10T09:09:22.301Z,8.98
2023-04-10T09:11:51.907Z,8.23
2023-04-10T09:14:22.331Z,8.27
2023-04-10T09:16:49.582Z,8.25
2023-04-10T09:19:33.352Z,8.00
2023-04-10T09:22:00.669Z,8.38
2023-04-10T09:24:27.931Z,7.40
2023-04-10T09:26:55.388Z,7.97
2023-04-10T09:29:22.220Z,7.78
2023-04-10T09:31:50.685Z,7.50
2023-04-10T09:34:23.767Z,7.60
2023-04-10T09:37:01.576Z,7.05
2023-04-10T09:39:36.934Z,7.07
2023-04-10T09:42:03.689Z,6.57
2023-04-10T09:44:31.271Z,6.95
2023-04-10T09:47:18.934Z,7.25
2023-04-10T09:49:49.408Z,6.53
2023-04-10T09:52:29.944Z,6.72
2023-04-10T09:54:58.631Z,6.50
2023-04-10T09:57:27.651Z,7.07
2023-04-10T09:59:58.957Z,6.60
2023-04-10T10:02:28.577Z,6.53
2023-04-10T10:04:57.099Z,6.30
2023-04-10T10:07:24.434Z,7.45
2023-04-10T10:09:52.145Z,6.43
2023-04-10T10:15:04.561Z,5.72
2023-04-10T10:18:06.837Z,6.32
2023-04-10T10:20:36.193Z,5.70
2023-04-10T10:23:04.278Z,5.82
2023-04-10T10:25:31.567Z,6.00
2023-04-10T10:28:05.540Z,5.85
2023-04-10T10:30:33.246Z,6.15
2023-04-10T10:33:03.377Z,5.32
2023-04-10T10:35:35.665Z,5.20
2023-04-10T10:38:04.061Z,6.15
2023-04-10T10:40:44.303Z,5.53
2023-04-10T10:43:20.573Z,5.28
2023-04-10T10:45:54.556Z,5.70
2023-04-10T10:48:21.123Z,4.90
2023-04-10T10:51:02.005Z,4.93
2023-04-10T10:53:40.565Z,4.45
2023-04-10T10:56:19.055Z,4.30
2023-04-10T10:58:50.986Z,4.25
2023-04-10T11:01:19.130Z,4.10
2023-04-10T11:03:46.281Z,4.43
2023-04-10T11:06:17.053Z,4.13
2023-04-10T11:08:46.804Z,4.28
2023-04-10T11:11:17.715Z,4.20
2023-04-10T11:13:50.789Z,3.95
2023-04-10T11:16:17.692Z,3.90
2023-04-10T11:18:51.247Z,3.65
2023-04-10T11:21:23.761Z,3.70
2023-04-10T11:23:50.201Z,3.58
2023-04-10T11:26:41.551Z,3.47
2023-04-10T11:29:17.354Z,3.90
2023-04-10T11:31:45.185Z,3.33
2023-04-10T11:34:12.302Z,3.50
2023-04-10T11:36:40.822Z,3.22
2023-04-10T11:39:15.954Z,3.17
2023-04-10T11:41:46.995Z,3.13
2023-04-10T11:44:14.723Z,3.60
2023-04-10T11:46:50.816Z,3.40
2023-04-10T11:49:19.541Z,3.10
2023-04-10T11:51:47.809Z,3.05
2023-04-10T11:54:19.841Z,3.50
2023-04-10T11:56:58.916Z,2.60
2023-04-10T11:59:26.625Z,3.17
2023-04-10T12:02:03.127Z,3.00
2023-04-10T12:04:29.816Z,3.45
2023-04-10T12:06:57.573Z,3.00
2023-04-10T12:09:24.174Z,3.03
2023-04-10T12:12:01.523Z,2.92
2023-04-10T12:14:42.316Z,2.97
2023-04-10T12:17:11.046Z,3.50
2023-04-10T12:19:41.499Z,2.80
2023-04-10T12:22:11.843Z,3.13
2023-04-10T12:24:52.489Z,2.83
2023-04-10T12:27:20.892Z,2.47
2023-04-10T12:29:48.973Z,2.70
2023-04-10T12:32:16.144Z,2.50
2023-04-10T12:34:49.492Z,2.83
2023-04-10T12:37:16.041Z,2.67
2023-04-10T12:39:42.534Z,2.50
2023-04-10T12:42:16.991Z,2.70
2023-04-10T12:44:56.584Z,2.42
2023-04-10T12:47:24.187Z,2.67
2023-04-10T12:50:06.721Z,3.00
2023-04-10T12:52:33.583Z,2.17
2023-04-10T12:55:17.332Z,2.72
2023-04-10T12:57:48.752Z,2.40
2023-04-10T13:00:17.947Z,2.10
2023-04-10T13:02:45.845Z,2.70
2023-04-10T13:05:12.616Z,2.40
2023-04-10T13:07:40.132Z,2.17
2023-04-10T13:10:07.991Z,2.20
2023-04-10T13:12:36.237Z,2.33
2023-04-10T13:15:02.921Z,2.33
2023-04-10T13:17:29.579Z,2.30
2023-04-10T13:19:56.283Z,2.35
2023-04-10T13:22:22.834Z,2.50
2023-04-10T13:24:49.499Z,2.25
2023-04-10T13:27:17.959Z,2.00
2023-04-10T13:29:44.557Z,2.28
2023-04-10T13:32:11.132Z,2.15
2023-04-10T13:34:37.776Z,2.15
2023-04-10T13:37:04.561Z,2.15
2023-04-10T13:39:31.400Z,1.80
2023-04-10T13:42:02.062Z,2.05
2023-04-10T13:44:28.682Z,2.00
2023-04-10T13:47:06.938Z,2.00
2023-04-10T14:13:28.682Z,2.22
2023-04-10T14:15:55.925Z,2.10
2023-04-10T14:18:26.339Z,2.20
2023-04-10T14:21:12.173Z,2.20
2023-04-10T14:24:23.728Z,2.47
2023-04-10T14:26:43.297Z,2.58
2023-04-10T14:29:16.243Z,2.25
2023-04-10T14:31:57.598Z,2.03
2023-04-10T14:34:28.022Z,2.28
2023-04-10T14:36:59.675Z,2.30
2023-04-10T14:39:28.643Z,2.60
2023-04-10T14:42:13.234Z,2.30
2023-04-10T14:44:41.335Z,1.98
2023-04-10T14:47:13.846Z,2.22
2023-04-10T14:49:49.439Z,2.20
2023-04-10T14:52:22.822Z,2.20
2023-04-10T14:54:56.187Z,2.35
2023-04-10T14:57:24.940Z,2.03
2023-04-10T14:59:53.077Z,2.30
2023-04-10T15:02:28.434Z,1.88
2023-04-10T15:05:00.191Z,1.90
2023-04-10T15:07:29.316Z,2.10
2023-04-10T15:10:04.391Z,1.70
2023-04-10T15:12:31.168Z,1.63
2023-04-10T15:15:05.028Z,1.50
2023-04-10T15:17:34.581Z,1.80
2023-04-10T15:20:01.197Z,1.52
2023-04-10T15:22:29.297Z,1.95
2023-04-10T15:24:55.947Z,2.00
2023-04-10T15:27:26.218Z,1.98
2023-04-10T15:29:52.613Z,1.80
2023-04-10T15:32:38.756Z,1.85
2023-04-10T15:35:07.482Z,1.85
2023-04-10T15:37:57.165Z,1.77
2023-04-10T15:40:55.715Z,1.80
2023-04-10T15:43:44.790Z,2.05
2023-04-10T15:46:39.461Z,2.00
2023-04-10T15:52:32.859Z,2.10
2023-04-10T15:58:46.683Z,2.13
2023-04-10T16:15:56.922Z,1.95
2023-04-10T16:18:23.424Z,1.85
2023-04-10T16:20:50.000Z,2.10
2023-04-10T16:23:16.571Z,1.88
2023-04-10T16:25:43.141Z,1.80
2023-04-10T16:28:09.755Z,1.85
2023-04-10T16:30:36.767Z,1.90
2023-04-10T16:33:04.110Z,1.92
2023-04-10T16:35:31.024Z,2.15
2023-04-10T16:37:57.694Z,2.00
2023-04-10T16:40:27.639Z,1.98
2023-04-10T16:42:54.215Z,2.00
2023-04-10T16:45:20.748Z,2.08
2023-04-10T16:47:47.326Z,2.00
2023-04-10T16:50:13.920Z,2.17
2023-04-10T16:52:40.538Z,1.75
2023-04-10T16:55:07.490Z,2.20
2023-04-10T16:57:34.010Z,2.10
2023-04-10T17:00:00.569Z,1.95
2023-04-10T17:02:28.371Z,2.22
2023-04-10T17:04:55.748Z,2.10
2023-04-10T17:07:23.247Z,2.20
2023-04-10T17:09:49.791Z,2.20
2023-04-10T17:12:16.324Z,2.30
2023-04-10T17:14:42.978Z,2.35
2023-04-10T17:17:09.602Z,2.00
2023-04-10T17:19:36.335Z,2.47
2023-04-10T17:22:02.911Z,2.22
2023-04-10T17:24:31.525Z,2.20
2023-04-10T17:26:58.349Z,2.45
2023-04-10T17:29:25.820Z,2.47
2023-04-10T17:31:52.532Z,2.17
2023-04-10T17:34:19.113Z,2.42
2023-04-10T17:36:45.711Z,2.60
2023-04-10T17:39:13.485Z,2.55
2023-04-10T17:41:40.193Z,2.92
2023-04-10T17:44:06.688Z,2.97
2023-04-10T17:46:33.594Z,2.70
2023-04-10T17:49:01.431Z,2.50
2023-04-10T17:51:28.364Z,2.70
2023-04-10T17:53:57.537Z,2.70
2023-04-10T17:56:24.042Z,2.20
2023-04-10T17:58:53.095Z,2.60
2023-04-10T18:01:24.298Z,2.47
2023-04-10T18:03:50.981Z,2.30
2023-04-10T18:06:17.562Z,2.22
2023-04-10T18:08:44.316Z,2.42
2023-04-10T18:11:11.067Z,2.47
2023-04-10T18:13:37.706Z,2.80
2023-04-10T18:16:04.851Z,2.60
2023-04-10T18:18:31.428Z,2.50
2023-04-10T18:20:58.007Z,2.53
2023-04-10T18:23:25.848Z,2.65
2023-04-10T18:25:55.956Z,2.75
2023-04-10T18:28:23.488Z,2.72
2023-04-10T18:30:56.926Z,3.10
2023-04-10T18:33:24.717Z,2.53
2023-04-10T18:35:58.724Z,2.72
2023-04-10T18:38:26.136Z,2.80
2023-04-10T18:40:57.487Z,2.60
2023-04-10T18:43:27.944Z,3.00
2023-04-10T18:45:54.916Z,2.83
2023-04-10T18:48:22.040Z,2.58
2023-04-10T18:50:52.425Z,2.40
2023-04-10T18:53:19.633Z,2.83
2023-04-10T18:55:53.201Z,2.63
2023-04-10T18:58:21.158Z,2.90
2023-04-10T19:00:48.179Z,2.80
2023-04-10T19:03:15.266Z,2.80
2023-04-10T19:05:43.502Z,2.97
2023-04-10T19:08:14.254Z,2.70
2023-04-10T19:10:42.424Z,2.88
2023-04-10T19:13:09.768Z,2.58
2023-04-10T19:15:44.499Z,2.92
2023-04-10T19:18:13.035Z,3.20
2023-04-10T19:20:49.813Z,2.63
2023-04-10T19:23:17.949Z,3.20
2023-04-10T19:25:44.837Z,2.40
2023-04-10T19:28:11.632Z,3.00
2023-04-10T19:30:38.201Z,2.35
2023-04-10T19:33:04.858Z,2.72
2023-04-10T19:35:31.405Z,3.30
2023-04-10T19:37:58.093Z,3.33
2023-04-10T19:40:24.753Z,3.63
2023-04-10T19:42:51.424Z,3.75
2023-04-10T19:45:18.149Z,3.40
2023-04-10T19:47:44.781Z,3.70
2023-04-10T19:50:11.374Z,3.10
2023-04-10T19:52:38.287Z,4.00
2023-04-10T19:55:05.399Z,3.63
2023-04-10T19:57:31.942Z,3.47
2023-04-10T19:59:58.843Z,3.53
2023-04-10T20:02:25.781Z,3.88
2023-04-10T20:04:52.728Z,3.72
2023-04-10T20:07:19.324Z,3.83
2023-04-10T20:09:45.929Z,4.00
2023-04-10T20:12:12.888Z,3.65
2023-04-10T20:14:39.500Z,4.00
2023-04-10T20:17:06.005Z,4.38
2023-04-10T20:19:32.563Z,4.63
2023-04-10T20:22:01.509Z,3.97
2023-04-10T20:24:28.919Z,3.70
2023-04-10T20:26:55.414Z,4.20
2023-04-10T20:29:22.062Z,4.05
2023-04-10T20:31:48.565Z,4.10
2023-04-10T20:34:15.275Z,3.40
2023-04-10T20:36:41.859Z,3.40
2023-04-10T20:39:08.450Z,3.45
2023-04-10T20:41:35.055Z,4.20
2023-04-10T20:44:01.649Z,4.03
2023-04-10T20:46:28.274Z,4.03
2023-04-10T20:48:59.314Z,4.50
2023-04-10T20:51:27.365Z,4.57
2023-04-10T20:53:54.104Z,4.65
2023-04-10T20:56:22.786Z,4.68
2023-04-10T20:58:51.538Z,4.10
2023-04-10T21:01:18.154Z,4.90
2023-04-10T21:03:44.938Z,4.50
2023-04-10T21:06:11.655Z,4.72
2023-04-10T21:08:38.184Z,4.90
2023-04-10T21:11:04.826Z,4.53
2023-04-10T21:13:31.356Z,4.60
2023-04-10T21:15:57.916Z,4.68
2023-04-10T21:18:24.487Z,4.40
2023-04-10T21:20:51.075Z,4.68
2023-04-10T21:23:17.615Z,4.60
2023-04-10T21:25:51.835Z,3.78
2023-04-10T21:28:18.547Z,3.92
2023-04-10T21:30:45.160Z,4.28
2023-04-10T21:33:11.726Z,3.30
2023-04-10T21:35:38.375Z,3.90
2023-04-10T21:38:04.992Z,3.92
2023-04-10T21:40:34.351Z,3.55
2023-04-10T21:43:02.257Z,3.17
2023-04-10T21:45:30.170Z,3.00
2023-04-10T21:47:56.715Z,3.33
2023-04-10T21:50:24.804Z,2.95
2023-04-10T21:52:51.400Z,2.78
2023-04-10T21:55:18.053Z,2.88
2023-04-10T21:57:44.621Z,2.53
2023-04-10T22:00:13.851Z,2.50
2023-04-10T22:02:40.687Z,2.75
2023-04-10T22:05:07.831Z,2.63
2023-04-10T22:07:34.324Z,2.78
2023-04-10T22:10:00.929Z,2.80
2023-04-10T22:12:27.567Z,2.58
2023-04-10T22:20:34.576Z,2.58
2023-04-10T22:23:19.138Z,2.58
2023-04-10T22:25:50.510Z,2.38
2023-04-10T22:28:17.074Z,2.53
2023-04-10T22:30:43.627Z,2.22
2023-04-10T22:33:10.727Z,2.42
2023-04-10T22:35:37.430Z,2.30
2023-04-10T22:38:08.443Z,2.20
2023-04-10T22:40:35.303Z,1.92
2023-04-10T22:43:01.935Z,2.30
2023-04-10T22:45:34.323Z,2.10
2023-04-10T22:48:01.010Z,2.08
2023-04-10T22:50:35.284Z,1.70
2023-04-10T22:53:01.770Z,1.70
2023-04-10T22:55:31.729Z,1.83
2023-04-10T22:58:13.136Z,2.15
2023-04-10T23:00:43.985Z,2.03
2023-04-10T23:04:02.334Z,1.67
2023-04-10T23:13:53.709Z,2.20
2023-04-10T23:16:23.158Z,2.05
2023-04-10T23:18:53.263Z,2.10
2023-04-10T23:21:29.912Z,1.67
2023-04-10T23:23:58.468Z,2.40
2023-04-10T23:29:26.302Z,2.13
2023-04-10T23:31:56.156Z,2.17
2023-04-10T23:34:22.815Z,1.92
2023-04-10T23:37:00.923Z,2.13
2023-04-10T23:39:27.521Z,1.98
2023-04-10T23:42:09.573Z,1.92
2023-04-10T23:50:13.137Z,1.98
2023-04-10T23:58:06.648Z,1.60
